createdAt,value
2017-08-05T00:00:11.532Z,71.95
2017-08-05T00:00:52.416Z,72.53
2017-08-05T00:01:33.309Z,72.53
2017-08-05T00:02:14.169Z,71.95
2017-08-05T00:02:55.046Z,71.95
2017-08-05T00:03:35.941Z,72.14
2017-08-05T00:04:16.819Z,72.53
2017-08-05T00:04:57.704Z,72.33
2017-08-05T00:05:38.605Z,72.81
2017-08-05T00:06:19.516Z,72.39
2017-08-05T00:07:00.379Z,72.91
2017-08-05T00:07:41.260Z,72.81
2017-08-05T00:08:22.152Z,72.24
2017-08-05T00:09:03.056Z,72.33
2017-08-05T00:09:43.922Z,72.91
2017-08-05T00:10:24.798Z,72.47
2017-08-05T00:11:05.674Z,71.41
2017-08-05T00:11:46.576Z,70.76
2017-08-05T00:12:27.470Z,70.28
2017-08-05T00:13:08.318Z,69.87
2017-08-05T00:13:49.193Z,70.25
2017-08-05T00:14:30.077Z,70.15
2017-08-05T00:15:10.977Z,70.92
2017-08-05T00:15:51.871Z,72.14
2017-08-05T00:16:32.772Z,72.05
2017-08-05T00:17:13.660Z,71.95
2017-08-05T00:17:54.542Z,71.95
2017-08-05T00:18:35.489Z,72.37
2017-08-05T00:19:16.377Z,72.18
2017-08-05T00:19:57.271Z,71.89
2017-08-05T00:20:38.171Z,71.95
2017-08-05T00:21:19.064Z,71.76
2017-08-05T00:21:59.959Z,71.76
2017-08-05T00:22:40.843Z,71.76
2017-08-05T00:23:21.725Z,72.43
2017-08-05T00:24:02.633Z,72.33
2017-08-05T00:24:43.520Z,72.63
2017-08-05T00:25:24.416Z,72.43
2017-08-05T00:26:05.314Z,72.63
2017-08-05T00:26:46.209Z,72.14
2017-08-05T00:27:27.091Z,72.53
2017-08-05T00:28:07.985Z,72.63
2017-08-05T00:28:48.879Z,72.33
2017-08-05T00:29:29.815Z,72.53
2017-08-05T00:30:10.700Z,72.81
2017-08-05T00:30:51.585Z,72.53
2017-08-05T00:31:32.492Z,72.43
2017-08-05T00:32:13.389Z,72.91
2017-08-05T00:32:54.281Z,73.01
2017-08-05T00:33:35.172Z,72.91
2017-08-05T00:34:16.072Z,72.81
2017-08-05T00:34:56.962Z,73.1
2017-08-05T00:35:37.858Z,72.81
2017-08-05T00:36:18.751Z,72.81
2017-08-05T00:36:59.638Z,72.81
2017-08-05T00:37:40.545Z,73.01
2017-08-05T00:38:21.436Z,72.72
2017-08-05T00:39:02.336Z,73.2
2017-08-05T00:39:43.220Z,73.01
2017-08-05T00:40:24.126Z,73.2
2017-08-05T00:41:05.020Z,73.01
2017-08-05T00:41:45.917Z,73.78
2017-08-05T00:42:26.808Z,73.39
2017-08-05T00:43:07.689Z,73.88
2017-08-05T00:43:48.575Z,73.78
2017-08-05T00:44:29.476Z,73.49
2017-08-05T00:45:10.366Z,73.68
2017-08-05T00:45:51.252Z,73.58
2017-08-05T00:46:32.156Z,73.68
2017-08-05T00:47:13.067Z,73.88
2017-08-05T00:47:53.955Z,73.49
2017-08-05T00:48:34.858Z,73.68
2017-08-05T00:49:15.742Z,73.39
2017-08-05T00:49:56.651Z,73.3
2017-08-05T00:50:37.537Z,73.97
2017-08-05T00:51:18.423Z,73.78
2017-08-05T00:51:59.347Z,74.07
2017-08-05T00:52:40.235Z,73.88
2017-08-05T00:53:21.122Z,74.07
2017-08-05T00:54:02.014Z,73.39
2017-08-05T00:54:42.892Z,73.78
2017-08-05T00:55:23.787Z,73.97
2017-08-05T00:56:04.680Z,74.01
2017-08-05T00:56:45.571Z,73.82
2017-08-05T00:57:26.465Z,73.33
2017-08-05T00:58:07.354Z,73.33
2017-08-05T00:58:48.236Z,73.33
2017-08-05T00:59:29.135Z,72.91
2017-08-05T01:00:10.038Z,73.1
2017-08-05T01:00:50.933Z,73.3
2017-08-05T01:01:31.821Z,73.2
2017-08-05T01:02:12.715Z,73.68
2017-08-05T01:02:53.606Z,74.65
2017-08-05T01:03:34.491Z,74.45
2017-08-05T01:04:15.392Z,73.97
2017-08-05T01:04:56.293Z,73.39
2017-08-05T01:05:37.196Z,73.49
2017-08-05T01:06:18.086Z,74.07
2017-08-05T01:06:58.984Z,73.78
2017-08-05T01:07:39.874Z,74.07
2017-08-05T01:08:20.765Z,74.84
2017-08-05T01:09:01.666Z,75.13
2017-08-05T01:09:42.551Z,74.65
2017-08-05T01:10:23.443Z,74.65
2017-08-05T01:11:04.333Z,74.74
2017-08-05T01:11:45.227Z,74.07
2017-08-05T01:12:26.115Z,74.84
2017-08-05T01:13:07.010Z,74.65
2017-08-05T01:13:47.908Z,74.55
2017-08-05T01:14:28.794Z,75.03
2017-08-05T01:15:09.685Z,74.8
2017-08-05T01:15:50.583Z,75.76
2017-08-05T01:16:31.470Z,75.57
2017-08-05T01:17:12.361Z,75.28
2017-08-05T01:17:53.261Z,75.8
2017-08-05T01:18:34.156Z,75.8
2017-08-05T01:19:15.044Z,75.13
2017-08-05T01:19:55.941Z,75.28
2017-08-05T01:20:36.824Z,75.48
2017-08-05T01:21:17.715Z,75.48
2017-08-05T01:21:58.615Z,75.38
2017-08-05T01:22:39.515Z,75.76
2017-08-05T01:23:20.416Z,75.76
2017-08-05T01:24:01.311Z,76.06
2017-08-05T01:24:42.207Z,76.21
2017-08-05T01:25:23.093Z,75.96
2017-08-05T01:26:03.976Z,76.5
2017-08-05T01:26:44.872Z,76.31
2017-08-05T01:27:25.767Z,76.44
2017-08-05T01:28:06.662Z,76.5
2017-08-05T01:28:47.554Z,77.08
2017-08-05T01:29:28.446Z,77.5
2017-08-05T01:30:09.373Z,76.92
2017-08-05T01:30:50.265Z,76.53
2017-08-05T01:31:31.164Z,76.5
2017-08-05T01:32:12.050Z,76.53
2017-08-05T01:32:52.931Z,77.5
2017-08-05T01:33:33.850Z,77.5
2017-08-05T01:34:14.740Z,76.73
2017-08-05T01:34:55.632Z,76.98
2017-08-05T01:35:36.527Z,77.26
2017-08-05T01:36:17.418Z,77.26
2017-08-05T01:36:58.311Z,76.98
2017-08-05T01:37:39.202Z,77.36
2017-08-05T01:38:20.091Z,77.46
2017-08-05T01:39:00.986Z,78.03
2017-08-05T01:39:41.898Z,77.26
2017-08-05T01:40:22.787Z,78.03
2017-08-05T01:41:03.679Z,77.94
2017-08-05T01:41:44.571Z,78.23
2017-08-05T01:42:25.463Z,78.33
2017-08-05T01:43:06.360Z,78.33
2017-08-05T01:43:47.250Z,78.33
2017-08-05T01:44:28.161Z,78.33
2017-08-05T01:45:09.062Z,78.81
2017-08-05T01:45:49.960Z,78.48
2017-08-05T01:46:30.854Z,79.19
2017-08-05T01:47:11.752Z,78.71
2017-08-05T01:47:52.647Z,77.84
2017-08-05T01:48:33.534Z,78.33
2017-08-05T01:49:14.422Z,78.9
2017-08-05T01:49:55.328Z,78.52
2017-08-05T01:50:36.232Z,78.33
2017-08-05T01:51:17.136Z,78.61
2017-08-05T01:51:58.024Z,77.88
2017-08-05T01:52:38.911Z,77.59
2017-08-05T01:53:19.812Z,77.5
2017-08-05T01:54:00.701Z,77.98
2017-08-05T01:54:41.591Z,78.03
2017-08-05T01:55:22.490Z,78.13
2017-08-05T01:56:03.378Z,78.23
2017-08-05T01:56:44.270Z,78.42
2017-08-05T01:57:25.167Z,78.03
2017-08-05T01:58:06.061Z,78.81
2017-08-05T01:58:46.954Z,78.13
2017-08-05T01:59:27.849Z,78.33
2017-08-05T02:00:08.747Z,78.81
2017-08-05T02:00:49.636Z,78.33
2017-08-05T02:01:30.525Z,78.13
2017-08-05T02:02:11.417Z,78.23
2017-08-05T02:02:52.330Z,79.48
2017-08-05T02:03:33.218Z,78.77
2017-08-05T02:04:14.107Z,79.19
2017-08-05T02:04:55.009Z,79.35
2017-08-05T02:05:35.906Z,79.73
2017-08-05T02:06:16.799Z,79.82
2017-08-05T02:06:57.696Z,80.02
2017-08-05T02:07:38.589Z,79.58
2017-08-05T02:08:19.483Z,79.19
2017-08-05T02:09:00.369Z,79.05
2017-08-05T02:09:41.264Z,79.73
2017-08-05T02:10:22.157Z,80.25
2017-08-05T02:11:03.061Z,79.77
2017-08-05T02:11:43.957Z,79.67
2017-08-05T02:12:24.851Z,79.92
2017-08-05T02:13:05.729Z,80.35
2017-08-05T02:13:46.633Z,80.02
2017-08-05T02:14:27.528Z,80.3
2017-08-05T02:15:08.422Z,80.4
2017-08-05T02:15:49.314Z,79.77
2017-08-05T02:16:30.208Z,79.86
2017-08-05T02:17:11.098Z,80.06
2017-08-05T02:17:51.992Z,80.54
2017-08-05T02:18:32.887Z,80.54
2017-08-05T02:19:13.770Z,79.86
2017-08-05T02:19:54.660Z,79.73
2017-08-05T02:20:35.553Z,79.58
2017-08-05T02:21:16.438Z,79.92
2017-08-05T02:21:57.329Z,80.02
2017-08-05T02:22:38.217Z,80.21
2017-08-05T02:23:19.109Z,80.4
2017-08-05T02:24:00.004Z,80.11
2017-08-05T02:24:40.896Z,80.21
2017-08-05T02:25:21.791Z,81.12
2017-08-05T02:26:02.680Z,80.63
2017-08-05T02:26:43.573Z,80.73
2017-08-05T02:27:24.453Z,80.4
2017-08-05T02:28:05.355Z,80.5
2017-08-05T02:28:46.262Z,80.63
2017-08-05T02:29:27.156Z,79.96
2017-08-05T02:30:08.075Z,79.96
2017-08-05T02:30:48.962Z,79.28
2017-08-05T02:31:29.851Z,79.77
2017-08-05T02:32:10.745Z,79.77
2017-08-05T02:32:51.636Z,79.67
2017-08-05T02:33:32.530Z,79.67
2017-08-05T02:34:13.419Z,79.96
2017-08-05T02:34:54.315Z,80.15
2017-08-05T02:35:35.271Z,80.25
2017-08-05T02:36:16.120Z,79.48
2017-08-05T02:36:57.013Z,79.82
2017-08-05T02:37:37.913Z,80.21
2017-08-05T02:38:18.800Z,80.6
2017-08-05T02:38:59.691Z,80.11
2017-08-05T02:39:40.583Z,80.5
2017-08-05T02:40:21.480Z,80.4
2017-08-05T02:41:02.371Z,80.98
2017-08-05T02:41:43.270Z,81.17
2017-08-05T02:42:24.161Z,80.6
2017-08-05T02:43:05.051Z,81.17
2017-08-05T02:43:45.936Z,81.27
2017-08-05T02:44:26.829Z,81.07
2017-08-05T02:45:07.726Z,80.6
2017-08-05T02:45:48.617Z,80.5
2017-08-05T02:46:29.511Z,81.56
2017-08-05T02:47:10.403Z,81.27
2017-08-05T02:47:51.307Z,81.27
2017-08-05T02:48:32.197Z,80.69
2017-08-05T02:49:13.089Z,81.56
2017-08-05T02:49:53.981Z,81.37
2017-08-05T02:50:34.873Z,80.98
2017-08-05T02:51:15.764Z,81.27
2017-08-05T02:51:56.653Z,80.63
2017-08-05T02:52:37.541Z,79.77
2017-08-05T02:53:18.431Z,80.15
2017-08-05T02:53:59.329Z,79.86
2017-08-05T02:54:40.228Z,79.96
2017-08-05T02:55:21.143Z,79.77
2017-08-05T02:56:02.019Z,80.06
2017-08-05T02:56:42.922Z,80.21
2017-08-05T02:57:23.830Z,80.25
2017-08-05T02:58:04.704Z,80.5
2017-08-05T02:58:45.602Z,80.4
2017-08-05T02:59:26.493Z,80.3
2017-08-05T03:00:07.382Z,80.3
2017-08-05T03:00:48.278Z,80.5
2017-08-05T03:01:29.184Z,80.79
2017-08-05T03:02:10.068Z,80.69
2017-08-05T03:02:50.967Z,80.5
2017-08-05T03:03:31.856Z,80.69
2017-08-05T03:04:12.751Z,80.79
2017-08-05T03:04:53.655Z,80.69
2017-08-05T03:05:34.544Z,80.6
2017-08-05T03:06:15.435Z,81.46
2017-08-05T03:06:56.324Z,80.69
2017-08-05T03:07:37.218Z,80.44
2017-08-05T03:08:18.104Z,80.44
2017-08-05T03:08:59.002Z,80.5
2017-08-05T03:09:39.893Z,80.6
2017-08-05T03:10:20.785Z,80.69
2017-08-05T03:11:01.677Z,80.79
2017-08-05T03:11:42.573Z,81.37
2017-08-05T03:12:23.476Z,80.98
2017-08-05T03:13:04.370Z,80.98
2017-08-05T03:13:45.260Z,81.52
2017-08-05T03:14:26.164Z,81.52
2017-08-05T03:15:07.042Z,82.19
2017-08-05T03:15:47.932Z,82.19
2017-08-05T03:16:28.834Z,82.19
2017-08-05T03:17:09.725Z,82.48
2017-08-05T03:17:50.632Z,83.06
2017-08-05T03:18:31.524Z,82.57
2017-08-05T03:19:12.414Z,82.96
2017-08-05T03:19:53.306Z,82.86
2017-08-05T03:20:34.204Z,83.53
2017-08-05T03:21:15.096Z,83.3
2017-08-05T03:21:55.987Z,83.3
2017-08-05T03:22:36.889Z,83.4
2017-08-05T03:23:17.781Z,83.83
2017-08-05T03:23:58.671Z,84.17
2017-08-05T03:24:39.566Z,83.78
2017-08-05T03:25:20.449Z,83.78
2017-08-05T03:26:01.352Z,83.87
2017-08-05T03:26:42.238Z,84.17
2017-08-05T03:27:23.121Z,84.26
2017-08-05T03:28:04.009Z,84.45
2017-08-05T03:28:44.900Z,84.17
2017-08-05T03:29:25.788Z,84.07
2017-08-05T03:30:06.685Z,83.87
2017-08-05T03:30:47.573Z,83.78
2017-08-05T03:31:28.487Z,84.17
2017-08-05T03:32:09.392Z,84.17
2017-08-05T03:32:50.283Z,84.07
2017-08-05T03:33:31.184Z,84.26
2017-08-05T03:34:12.074Z,84.26
2017-08-05T03:34:52.969Z,84.36
2017-08-05T03:35:33.856Z,84.55
2017-08-05T03:36:14.757Z,84.17
2017-08-05T03:36:55.644Z,83.69
2017-08-05T03:37:36.532Z,83.97
2017-08-05T03:38:17.422Z,83.78
2017-08-05T03:38:58.313Z,83.78
2017-08-05T03:39:39.191Z,83.87
2017-08-05T03:40:20.091Z,84.26
2017-08-05T03:41:00.986Z,83.78
2017-08-05T03:41:41.865Z,84.26
2017-08-05T03:42:22.770Z,84.17
2017-08-05T03:43:03.659Z,84.36
2017-08-05T03:43:44.536Z,84.07
2017-08-05T03:44:25.423Z,84.17
2017-08-05T03:45:06.324Z,84.36
2017-08-05T03:45:47.203Z,84.26
2017-08-05T03:46:28.090Z,84.17
2017-08-05T03:47:08.983Z,84.36
2017-08-05T03:47:49.879Z,84.74
2017-08-05T03:48:30.769Z,84.64
2017-08-05T03:49:11.654Z,84.45
2017-08-05T03:49:52.538Z,84.55
2017-08-05T03:50:33.419Z,84.45
2017-08-05T03:51:14.309Z,84.64
2017-08-05T03:51:55.217Z,84.84
2017-08-05T03:52:36.093Z,84.98
2017-08-05T03:53:16.982Z,84.01
2017-08-05T03:53:57.867Z,83.97
2017-08-05T03:54:38.766Z,83.97
2017-08-05T03:55:19.656Z,84.26
2017-08-05T03:56:00.569Z,83.77
2017-08-05T03:56:41.442Z,83.44
2017-08-05T03:57:22.328Z,83.34
2017-08-05T03:58:03.227Z,82.96
2017-08-05T03:58:44.113Z,83.25
2017-08-05T03:59:25.005Z,83.34
2017-08-05T04:00:05.897Z,83.44
2017-08-05T04:00:46.779Z,82.96
2017-08-05T04:01:27.657Z,83.15
2017-08-05T04:02:08.545Z,83.53
2017-08-05T04:02:49.471Z,84.01
2017-08-05T04:03:30.357Z,83.49
2017-08-05T04:04:11.258Z,83.4
2017-08-05T04:04:52.141Z,83.11
2017-08-05T04:05:33.040Z,83.92
2017-08-05T04:06:13.965Z,83.53
2017-08-05T04:06:54.852Z,83.73
2017-08-05T04:07:35.745Z,83.34
2017-08-05T04:08:16.634Z,83.25
2017-08-05T04:08:57.525Z,83.53
2017-08-05T04:09:38.427Z,83.06
2017-08-05T04:10:19.314Z,83.59
2017-08-05T04:11:00.196Z,83.69
2017-08-05T04:11:41.089Z,83.59
2017-08-05T04:12:21.979Z,83.73
2017-08-05T04:13:02.878Z,83.11
2017-08-05T04:13:43.754Z,83.2
2017-08-05T04:14:24.649Z,83.3
2017-08-05T04:15:05.532Z,83.87
2017-08-05T04:15:46.435Z,83.2
2017-08-05T04:16:27.326Z,83.78
2017-08-05T04:17:08.225Z,83.59
2017-08-05T04:17:49.118Z,83.4
2017-08-05T04:18:30.009Z,83.69
2017-08-05T04:19:10.901Z,83.69
2017-08-05T04:19:51.795Z,83.53
2017-08-05T04:20:32.690Z,82.96
2017-08-05T04:21:13.578Z,82.67
2017-08-05T04:21:54.479Z,82.48
2017-08-05T04:22:35.369Z,82.09
2017-08-05T04:23:16.270Z,81.71
2017-08-05T04:23:57.157Z,82.48
2017-08-05T04:24:38.045Z,82.29
2017-08-05T04:25:18.939Z,82.76
2017-08-05T04:25:59.838Z,83.49
2017-08-05T04:26:40.728Z,83.06
2017-08-05T04:27:21.618Z,83.2
2017-08-05T04:28:02.509Z,82.67
2017-08-05T04:28:43.405Z,82.73
2017-08-05T04:29:24.315Z,82.57
2017-08-05T04:30:05.197Z,82.53
2017-08-05T04:30:46.081Z,82.43
2017-08-05T04:31:26.983Z,82.48
2017-08-05T04:32:07.871Z,82.86
2017-08-05T04:32:48.754Z,82.86
2017-08-05T04:33:29.642Z,82.48
2017-08-05T04:34:10.545Z,83.06
2017-08-05T04:34:51.434Z,82.92
2017-08-05T04:35:32.339Z,83.15
2017-08-05T04:36:13.254Z,82.57
2017-08-05T04:36:54.160Z,82.76
2017-08-05T04:37:35.055Z,82.57
2017-08-05T04:38:15.949Z,82.86
2017-08-05T04:38:56.847Z,83.06
2017-08-05T04:39:37.737Z,82.57
2017-08-05T04:40:18.608Z,82.67
2017-08-05T04:40:59.508Z,82.38
2017-08-05T04:41:40.393Z,82.48
2017-08-05T04:42:22.447Z,83.06
2017-08-05T04:43:03.339Z,82.86
2017-08-05T04:43:44.225Z,82.96
2017-08-05T04:44:25.121Z,82.86
2017-08-05T04:45:06.011Z,83.06
2017-08-05T04:45:46.896Z,82.96
2017-08-05T04:46:27.786Z,82.96
2017-08-05T04:48:01.056Z,83.06
2017-08-05T04:48:41.950Z,82.76
2017-08-05T04:49:22.838Z,82.76
2017-08-05T04:50:03.737Z,82.86
2017-08-05T04:50:44.626Z,83.06
2017-08-05T04:51:25.512Z,82.76
2017-08-05T04:52:06.399Z,82.76
2017-08-05T04:52:47.293Z,82.86
2017-08-05T04:53:28.188Z,82.76
2017-08-05T04:54:09.086Z,82.76
2017-08-05T04:54:49.981Z,82.76
2017-08-05T04:55:30.879Z,82.57
2017-08-05T04:56:11.772Z,82.38
2017-08-05T04:56:52.671Z,82.48
2017-08-05T04:57:33.553Z,82.86
2017-08-05T04:58:14.433Z,82.86
2017-08-05T04:58:55.323Z,82.96
2017-08-05T04:59:36.219Z,82.71
2017-08-05T05:00:17.094Z,81.56
2017-08-05T05:00:58.016Z,81.75
2017-08-05T05:01:38.904Z,82.23
2017-08-05T05:02:19.788Z,81.56
2017-08-05T05:03:00.678Z,81.56
2017-08-05T05:03:41.566Z,81.07
2017-08-05T05:04:22.520Z,81.27
2017-08-05T05:05:03.403Z,81.17
2017-08-05T05:05:44.301Z,81.07
2017-08-05T05:06:25.187Z,81.27
2017-08-05T05:07:06.078Z,81.07
2017-08-05T05:07:46.956Z,81.37
2017-08-05T05:08:27.853Z,81.56
2017-08-05T05:09:08.742Z,81.56
2017-08-05T05:09:49.630Z,82.23
2017-08-05T05:10:30.540Z,82.23
2017-08-05T05:11:11.409Z,82.23
2017-08-05T05:11:52.282Z,81.37
2017-08-05T05:12:33.174Z,81.5
2017-08-05T05:13:14.086Z,81.46
2017-08-05T05:13:54.962Z,81.21
2017-08-05T05:14:35.840Z,80.54
2017-08-05T05:15:16.730Z,80.73
2017-08-05T05:15:57.622Z,80.83
2017-08-05T05:16:38.491Z,80.54
2017-08-05T05:17:19.377Z,80.92
2017-08-05T05:18:00.279Z,81.02
2017-08-05T05:18:41.169Z,80.63
2017-08-05T05:19:22.058Z,80.35
2017-08-05T05:20:02.960Z,80.73
2017-08-05T05:20:43.842Z,80.83
2017-08-05T05:21:24.732Z,80.44
2017-08-05T05:22:05.631Z,80.4
2017-08-05T05:22:46.517Z,80.44
2017-08-05T05:23:27.404Z,80.4
2017-08-05T05:24:08.310Z,80.69
2017-08-05T05:25:41.556Z,81.17
2017-08-05T05:26:22.451Z,80.88
2017-08-05T05:27:03.320Z,80.54
2017-08-05T05:27:44.193Z,80.63
2017-08-05T05:28:25.087Z,81.02
2017-08-05T05:29:05.989Z,80.73
2017-08-05T05:29:46.874Z,80.35
2017-08-05T05:30:27.762Z,80.54
2017-08-05T05:31:08.655Z,80.83
2017-08-05T05:31:49.540Z,79.81
2017-08-05T05:32:30.430Z,79.81
2017-08-05T05:33:11.355Z,80
2017-08-05T05:33:52.252Z,79.23
2017-08-05T05:34:33.141Z,78.79
2017-08-05T05:35:14.038Z,78.59
2017-08-05T05:35:54.908Z,77.92
2017-08-05T05:36:35.817Z,77.53
2017-08-05T05:37:16.711Z,77.06
2017-08-05T05:37:57.580Z,77.53
2017-08-05T05:38:38.505Z,77.53
2017-08-05T05:39:19.385Z,77.73
2017-08-05T05:40:00.251Z,77.73
2017-08-05T05:40:41.125Z,77.34
2017-08-05T05:41:22.048Z,77.48
2017-08-05T05:42:02.918Z,77
2017-08-05T05:42:43.792Z,76.03
2017-08-05T05:43:24.670Z,76.13
2017-08-05T05:44:05.566Z,76.51
2017-08-05T05:44:46.463Z,76.03
2017-08-05T05:45:27.347Z,75.84
2017-08-05T05:46:08.238Z,76.03
2017-08-05T05:46:49.120Z,76.03
2017-08-05T05:47:30.012Z,76.51
2017-08-05T05:48:10.919Z,76.23
2017-08-05T05:48:51.807Z,76.13
2017-08-05T05:49:32.699Z,76.13
2017-08-05T05:50:13.590Z,74.91
2017-08-05T05:50:54.471Z,74.82
2017-08-05T05:51:35.356Z,74.49
2017-08-05T05:52:16.250Z,74.58
2017-08-05T05:52:57.144Z,75.16
2017-08-05T05:53:38.026Z,74.78
2017-08-05T05:54:18.964Z,74.43
2017-08-05T05:54:59.839Z,73.85
2017-08-05T05:55:40.734Z,73.75
2017-08-05T05:56:21.629Z,74.14
2017-08-05T05:57:02.521Z,74.24
2017-08-05T05:57:43.408Z,74.3
2017-08-05T05:58:24.305Z,74.01
2017-08-05T05:59:05.247Z,74.78
2017-08-05T05:59:46.178Z,75.03
2017-08-05T06:00:27.075Z,75.99
2017-08-05T06:01:07.967Z,75.71
2017-08-05T06:01:48.858Z,75.32
2017-08-05T06:02:29.758Z,76.09
2017-08-05T06:03:10.645Z,75.8
2017-08-05T06:03:51.532Z,75.71
2017-08-05T06:04:32.427Z,76.57
2017-08-05T06:05:13.320Z,75.65
2017-08-05T06:05:54.210Z,74.49
2017-08-05T06:06:35.125Z,74.68
2017-08-05T06:07:16.044Z,74.97
2017-08-05T06:07:56.937Z,75.16
2017-08-05T06:08:38.346Z,74.78
2017-08-05T06:09:19.358Z,75.45
2017-08-05T06:10:00.315Z,75.45
2017-08-05T06:10:41.200Z,75.65
2017-08-05T06:11:22.167Z,75.42
2017-08-05T06:12:03.054Z,75.71
2017-08-05T06:12:43.961Z,75.9
2017-08-05T06:13:24.857Z,76.18
2017-08-05T06:14:05.769Z,75.42
2017-08-05T06:14:46.660Z,75.71
2017-08-05T06:15:27.560Z,75.55
2017-08-05T06:16:08.458Z,75.26
2017-08-05T06:16:49.343Z,74.58
2017-08-05T06:17:30.240Z,74.49
2017-08-05T06:18:11.131Z,75.07
2017-08-05T06:18:52.022Z,74.4
2017-08-05T06:19:32.913Z,74.2
2017-08-05T06:20:13.832Z,74.14
2017-08-05T06:20:54.735Z,73.5
2017-08-05T06:21:35.625Z,71.96
2017-08-05T06:22:16.507Z,72.15
2017-08-05T06:22:57.417Z,71.86
2017-08-05T06:23:38.313Z,71.12
2017-08-05T06:24:19.212Z,70.84
2017-08-05T06:25:00.126Z,70.94
2017-08-05T06:25:40.999Z,70.54
2017-08-05T06:26:21.889Z,69.68
2017-08-05T06:27:02.906Z,70.42
2017-08-05T06:27:43.777Z,71.03
2017-08-05T06:29:17.088Z,70.42
2017-08-05T06:29:57.984Z,70.54
2017-08-05T06:30:38.875Z,70.45
2017-08-05T06:31:19.758Z,70.16
2017-08-05T06:32:00.650Z,70.16
2017-08-05T06:32:41.548Z,70.61
2017-08-05T06:33:22.447Z,70.8
2017-08-05T06:34:03.374Z,71.09
2017-08-05T06:34:44.251Z,70.94
2017-08-05T06:35:25.156Z,71.38
2017-08-05T06:36:06.086Z,71.61
2017-08-05T06:36:46.974Z,70.84
2017-08-05T06:37:27.889Z,70.26
2017-08-05T06:38:08.791Z,69.97
2017-08-05T06:38:49.673Z,69.68
2017-08-05T06:39:30.564Z,70.54
2017-08-05T06:40:11.465Z,70.8
2017-08-05T06:40:52.353Z,70.45
2017-08-05T06:41:33.253Z,70.16
2017-08-05T06:42:14.150Z,69.81
2017-08-05T06:42:55.040Z,68.84
2017-08-05T06:43:35.950Z,67.72
2017-08-05T06:44:16.863Z,66.98
2017-08-05T06:44:57.759Z,66.05
2017-08-05T06:45:38.657Z,64.89
2017-08-05T06:46:19.548Z,64.34
2017-08-05T06:47:00.441Z,63.21
2017-08-05T06:47:41.377Z,61.4
2017-08-05T06:48:22.274Z,60.82
2017-08-05T06:49:03.166Z,59.59
2017-08-05T06:49:44.067Z,59.42
2017-08-05T06:50:24.962Z,58
2017-08-05T06:51:05.862Z,56.54
2017-08-05T06:51:46.770Z,55.89
2017-08-05T06:52:27.665Z,54.05
2017-08-05T06:53:08.546Z,54.56
2017-08-05T06:53:49.443Z,55.87
2017-08-05T06:54:30.338Z,55.31
2017-08-05T06:55:11.234Z,55.87
2017-08-05T06:55:52.132Z,54.36
2017-08-05T06:56:33.021Z,54
2017-08-05T06:57:13.923Z,54.05
2017-08-05T06:57:54.826Z,54.77
2017-08-05T06:58:35.727Z,56.41
2017-08-05T06:59:16.627Z,56.71
2017-08-05T06:59:57.518Z,56.15
2017-08-05T07:00:38.418Z,53.95
2017-08-05T07:01:19.320Z,54.48
2017-08-05T07:02:00.225Z,54.27
2017-08-05T07:02:41.129Z,52.64
2017-08-05T07:03:22.026Z,51.31
2017-08-05T07:04:02.926Z,50.53
2017-08-05T07:04:43.825Z,50.53
2017-08-05T07:05:24.731Z,49
2017-08-05T07:06:05.647Z,49.02
2017-08-05T07:06:46.597Z,48.44
2017-08-05T07:07:27.518Z,48.15
2017-08-05T07:08:08.413Z,47.49
2017-08-05T07:08:49.315Z,47.56
2017-08-05T07:09:30.216Z,47.96
2017-08-05T07:10:11.112Z,47.76
2017-08-05T07:10:52.026Z,47.44
2017-08-05T07:11:32.929Z,48.2
2017-08-05T07:12:13.838Z,48.3
2017-08-05T07:12:54.728Z,48.68
2017-08-05T07:13:35.632Z,48.9
2017-08-05T07:14:16.534Z,47.47
2017-08-05T07:14:57.431Z,47.76
2017-08-05T07:15:38.338Z,47.15
2017-08-05T07:16:19.236Z,47.64
2017-08-05T07:17:00.140Z,48.39
2017-08-05T07:17:41.044Z,48.71
2017-08-05T07:18:21.940Z,47.54
2017-08-05T07:19:02.845Z,47.83
2017-08-05T07:19:43.746Z,48.39
2017-08-05T07:20:24.649Z,48.2
2017-08-05T07:21:05.562Z,48.61
2017-08-05T07:21:46.457Z,49.27
2017-08-05T07:22:27.357Z,50.04
2017-08-05T07:23:08.263Z,50.04
2017-08-05T07:23:49.163Z,50.14
2017-08-05T07:24:30.067Z,51.01
2017-08-05T07:25:10.961Z,49.17
2017-08-05T07:25:51.879Z,49.27
2017-08-05T07:26:32.778Z,50.43
2017-08-05T07:27:13.687Z,49.95
2017-08-05T07:27:54.598Z,50.14
2017-08-05T07:28:35.496Z,49.37
2017-08-05T07:29:16.398Z,49.44
2017-08-05T07:29:57.301Z,51.06
2017-08-05T07:30:38.216Z,52.08
2017-08-05T07:31:19.115Z,54.38
2017-08-05T07:32:00.041Z,52.52
2017-08-05T07:32:40.933Z,50.24
2017-08-05T07:33:21.846Z,49.17
2017-08-05T07:34:02.751Z,49.37
2017-08-05T07:34:43.645Z,48.15
2017-08-05T07:35:24.550Z,46.71
2017-08-05T07:36:05.450Z,44.96
2017-08-05T07:36:46.352Z,45.25
2017-08-05T07:37:27.249Z,45.84
2017-08-05T07:38:08.174Z,45.08
2017-08-05T07:38:49.062Z,44.4
2017-08-05T07:39:29.978Z,43.81
2017-08-05T07:40:10.905Z,43.71
2017-08-05T07:40:51.841Z,43.43
2017-08-05T07:41:32.732Z,42.53
2017-08-05T07:42:13.638Z,42.53
2017-08-05T07:42:54.545Z,42.43
2017-08-05T07:43:35.500Z,43.89
2017-08-05T07:44:16.404Z,44.69
2017-08-05T07:44:57.316Z,44.2
2017-08-05T07:45:38.217Z,44.98
2017-08-05T07:46:19.121Z,43.18
2017-08-05T07:47:00.031Z,41.6
2017-08-05T07:47:40.937Z,42.35
2017-08-05T07:48:21.841Z,42.35
2017-08-05T07:49:02.748Z,43.79
2017-08-05T07:49:43.660Z,44.2
2017-08-05T07:50:24.580Z,42.38
2017-08-05T07:51:05.472Z,43.46
2017-08-05T07:51:47.276Z,45.62
2017-08-05T07:52:28.172Z,44.28
2017-08-05T07:53:09.084Z,44.18
2017-08-05T07:53:49.993Z,42.66
2017-08-05T07:54:30.904Z,41.22
2017-08-05T07:55:11.827Z,41.32
2017-08-05T07:55:52.719Z,40.93
2017-08-05T07:56:33.617Z,41.05
2017-08-05T07:57:14.542Z,42.31
2017-08-05T07:57:55.449Z,44.09
2017-08-05T07:58:36.358Z,43.23
2017-08-05T07:59:17.272Z,42.28
2017-08-05T07:59:58.178Z,43.15
2017-08-05T08:00:39.078Z,42.47
2017-08-05T08:02:32.822Z,42.2
2017-08-05T08:03:13.740Z,41.13
2017-08-05T08:03:54.636Z,42.25
2017-08-05T08:04:35.533Z,42.38
2017-08-05T08:05:16.448Z,43.79
2017-08-05T08:05:57.354Z,43.81
2017-08-05T08:06:38.267Z,44.16
2017-08-05T08:07:19.171Z,43.4
2017-08-05T08:08:00.075Z,43.7
2017-08-05T08:08:41.010Z,42.16
2017-08-05T08:09:21.918Z,41.03
2017-08-05T08:10:02.840Z,41.25
2017-08-05T08:10:44.222Z,39.88
2017-08-05T08:11:25.130Z,41.44
2017-08-05T08:12:06.037Z,40
2017-08-05T08:12:46.948Z,38.55
2017-08-05T08:13:27.856Z,38.35
2017-08-05T08:14:08.760Z,38.45
2017-08-05T08:14:49.668Z,38.65
2017-08-05T08:15:30.566Z,39.14
2017-08-05T08:16:11.472Z,39.33
2017-08-05T08:16:52.392Z,38.96
2017-08-05T08:17:33.309Z,37.67
2017-08-05T08:18:14.222Z,38.65
2017-08-05T08:18:55.129Z,39.86
2017-08-05T08:19:36.043Z,40.06
2017-08-05T08:20:16.949Z,39.98
2017-08-05T08:20:57.870Z,40.66
2017-08-05T08:21:38.767Z,39.72
2017-08-05T08:22:19.681Z,41.75
2017-08-05T08:23:00.572Z,42.33
2017-08-05T08:23:41.470Z,41.13
2017-08-05T08:24:22.383Z,41.07
2017-08-05T08:25:04.167Z,41.38
2017-08-05T08:25:45.053Z,38.26
2017-08-05T08:26:25.958Z,38.87
2017-08-05T08:27:06.864Z,38.4
2017-08-05T08:27:47.870Z,38.01
2017-08-05T08:28:28.735Z,41.35
2017-08-05T08:29:09.630Z,40.19
2017-08-05T08:29:50.547Z,42.02
2017-08-05T08:30:31.448Z,39.43
2017-08-05T08:32:09.902Z,38.3
2017-08-05T08:32:50.819Z,37.24
2017-08-05T08:33:31.783Z,37.35
2017-08-05T08:34:12.692Z,36.4
2017-08-05T08:34:53.612Z,35.3
2017-08-05T08:35:34.531Z,36.18
2017-08-05T08:37:07.869Z,34.44
2017-08-05T08:37:48.763Z,34.54
2017-08-05T08:38:29.676Z,33.94
2017-08-05T08:39:10.593Z,34.54
2017-08-05T08:39:51.495Z,36.55
2017-08-05T08:40:32.367Z,37.43
2017-08-05T08:41:13.272Z,35.69
2017-08-05T08:41:54.157Z,35.22
2017-08-05T08:42:35.067Z,35.04
2017-08-05T08:43:15.985Z,34.08
2017-08-05T08:43:56.943Z,33.84
2017-08-05T08:44:37.860Z,31.89
2017-08-05T08:45:18.751Z,32.54
2017-08-05T08:45:59.672Z,31.76
2017-08-05T08:46:40.550Z,32.43
2017-08-05T08:48:13.911Z,32.63
2017-08-05T08:48:54.819Z,32.82
2017-08-05T08:49:35.694Z,35.19
2017-08-05T08:50:16.599Z,34.98
2017-08-05T08:50:57.489Z,32.81
2017-08-05T08:51:38.370Z,34.14
2017-08-05T08:52:19.259Z,35.89
2017-08-05T08:53:00.170Z,36.28
2017-08-05T08:53:41.071Z,37.26
2017-08-05T08:54:21.989Z,39.43
2017-08-05T08:55:02.905Z,38.09